Time;durP1;ratioP1;P1;durP2;ratioP2;P2;SDS_P1;SDS_P2;PMS_P1;PMS_P2;Temp;Humidity;BMP_temperature;BMP_pressure;BME280_temperature;BME280_humidity;BME280_pressure;Samples;Min_cycle;Max_cycle;Signal;HPM_P1;HPM_P2
2023/03/05 00:01:27;;;;;;;6.47;1.50;;;3.80;99.90;;;;;;5050747;28;20033;-70
2023/03/05 00:03:54;;;;;;;8.88;1.35;;;3.80;99.90;;;;;;5050983;28;20418;-70
2023/03/05 00:06:22;;;;;;;7.38;1.67;;;3.70;99.90;;;;;;5050873;28;20472;-70
2023/03/05 00:08:48;;;;;;;5.00;1.50;;;3.60;99.90;;;;;;5050306;28;20447;-70
2023/03/05 00:11:15;;;;;;;9.50;1.65;;;3.60;99.90;;;;;;5050506;28;20041;-70
2023/03/05 00:13:41;;;;;;;17.73;2.47;;;3.50;99.90;;;;;;5050582;28;20112;-70
2023/03/05 00:16:12;;;;;;;5.47;1.67;;;3.50;99.90;;;;;;5050852;28;20433;-70
2023/03/05 00:18:38;;;;;;;10.63;2.40;;;3.40;99.90;;;;;;5047781;28;20048;-70
2023/03/05 00:21:15;;;;;;;5.50;1.42;;;3.40;99.90;;;;;;5050670;28;20487;-70
2023/03/05 00:23:41;;;;;;;10.45;1.65;;;3.30;99.90;;;;;;5050335;28;20047;-71
2023/03/05 00:26:06;;;;;;;12.57;2.65;;;3.40;99.90;;;;;;5050269;28;20483;-70
2023/03/05 00:28:32;;;;;;;5.63;1.88;;;3.30;99.90;;;;;;5031894;28;20045;-70
2023/03/05 00:31:01;;;;;;;9.63;1.80;;;3.30;99.90;;;;;;5050386;28;20049;-70
2023/03/05 00:33:26;;;;;;;7.53;1.70;;;3.30;99.90;;;;;;5050264;28;20032;-70
2023/03/05 00:35:52;;;;;;;7.20;1.90;;;3.30;99.90;;;;;;5050556;28;20122;-70
2023/03/05 00:38:18;;;;;;;12.27;1.98;;;3.20;99.90;;;;;;5033721;28;20043;-70
2023/03/05 00:40:44;;;;;;;8.73;2.10;;;3.30;99.90;;;;;;5047871;28;20041;-70
2023/03/05 00:43:10;;;;;;;6.07;1.38;;;3.20;99.90;;;;;;5049952;28;20048;-70
2023/03/05 00:45:35;;;;;;;7.15;2.08;;;3.20;99.90;;;;;;5050324;28;20043;-70
2023/03/05 00:48:02;;;;;;;4.20;1.42;;;3.20;99.90;;;;;;5046712;28;20045;-70
2023/03/05 00:50:28;;;;;;;4.00;1.30;;;3.20;99.90;;;;;;5049610;28;20090;-71
2023/03/05 00:52:54;;;;;;;8.30;1.40;;;3.10;99.90;;;;;;5049795;28;20060;-70
2023/03/05 00:55:20;;;;;;;8.77;2.47;;;3.10;99.90;;;;;;5049629;28;20040;-70
2023/03/05 00:57:45;;;;;;;11.07;1.95;;;3.10;99.90;;;;;;5049521;28;20040;-70
2023/03/05 01:00:14;;;;;;;9.05;1.67;;;3.10;99.90;;;;;;5049231;28;20052;-70
2023/03/05 01:02:39;;;;;;;8.05;2.13;;;3.00;99.90;;;;;;5049732;28;20384;-70
2023/03/05 01:05:05;;;;;;;9.48;1.83;;;3.10;99.90;;;;;;5049645;28;20043;-70
2023/03/05 01:07:31;;;;;;;7.00;1.80;;;3.10;99.90;;;;;;5048966;28;20080;-70
2023/03/05 01:09:57;;;;;;;9.30;1.63;;;3.10;99.90;;;;;;5049862;28;20041;-70
2023/03/05 01:12:22;;;;;;;12.23;2.40;;;3.10;99.90;;;;;;5049601;28;20051;-70
2023/03/05 01:14:48;;;;;;;7.18;1.67;;;3.00;99.90;;;;;;5049533;28;20098;-70
2023/03/05 01:17:14;;;;;;;8.38;1.33;;;3.00;99.90;;;;;;5049702;28;20124;-70
2023/03/05 01:19:39;;;;;;;6.57;1.35;;;3.10;99.90;;;;;;5030789;28;20075;-70
2023/03/05 01:22:05;;;;;;;6.15;1.40;;;3.00;99.90;;;;;;5049361;28;20037;-69
2023/03/05 01:24:31;;;;;;;5.60;1.67;;;3.10;99.90;;;;;;5032522;28;20045;-69
2023/03/05 01:26:57;;;;;;;9.55;2.03;;;3.00;99.90;;;;;;5049499;28;20480;-70
2023/03/05 01:29:23;;;;;;;6.05;1.65;;;3.00;99.90;;;;;;5048196;28;20047;-70
2023/03/05 01:31:49;;;;;;;7.80;1.60;;;3.00;99.90;;;;;;5048963;28;20044;-70
2023/03/05 01:34:14;;;;;;;5.63;1.40;;;3.00;99.90;;;;;;5049091;28;20392;-70
2023/03/05 01:36:41;;;;;;;6.38;1.30;;;3.00;99.90;;;;;;5065889;28;20546;-70
2023/03/05 01:39:07;;;;;;;6.95;1.88;;;3.00;99.90;;;;;;5048679;28;20051;-70
2023/03/05 01:41:33;;;;;;;6.35;1.60;;;3.00;99.90;;;;;;5049089;28;20029;-69
2023/03/05 01:43:59;;;;;;;8.25;1.70;;;3.00;99.90;;;;;;5048916;28;20069;-70
2023/03/05 01:46:36;;;;;;;8.50;1.70;;;3.00;99.90;;;;;;5032810;28;20076;-70
2023/03/05 01:49:20;;;;;;;7.28;1.60;;;3.00;99.90;;;;;;5032250;28;20037;-71
2023/03/05 01:52:09;;;;;;;8.52;1.80;;;3.00;99.90;;;;;;5047671;28;20475;-70
2023/03/05 01:54:43;;;;;;;8.23;1.48;;;3.00;99.90;;;;;;5048914;28;20048;-69
2023/03/05 01:57:16;;;;;;;8.30;1.48;;;3.00;99.90;;;;;;5048871;28;20048;-69
2023/03/05 01:59:44;;;;;;;5.63;1.70;;;2.90;99.90;;;;;;5048508;28;20083;-70
2023/03/05 02:02:12;;;;;;;7.68;1.60;;;3.00;99.90;;;;;;5048263;28;20040;-70
2023/03/05 02:04:49;;;;;;;6.35;1.73;;;2.90;99.90;;;;;;5049041;28;20492;-70
2023/03/05 02:07:16;;;;;;;8.80;1.50;;;2.90;99.90;;;;;;5049093;28;20040;-70
2023/03/05 02:09:42;;;;;;;6.53;1.75;;;2.90;99.90;;;;;;5034137;28;20067;-70
2023/03/05 02:12:10;;;;;;;6.63;1.38;;;2.90;99.90;;;;;;5050212;28;20037;-70
2023/03/05 02:14:37;;;;;;;7.35;1.50;;;2.90;99.90;;;;;;5053121;28;20068;-71
2023/03/05 02:17:02;;;;;;;7.35;1.70;;;2.90;99.90;;;;;;5036104;28;20045;-70
2023/03/05 02:19:28;;;;;;;7.63;1.92;;;2.90;99.90;;;;;;5053197;28;20041;-69
2023/03/05 02:21:54;;;;;;;6.18;1.40;;;2.90;99.90;;;;;;5052012;28;20040;-70
2023/03/05 02:24:36;;;;;;;9.43;1.95;;;2.90;99.90;;;;;;5052444;28;20033;-70
2023/03/05 02:27:04;;;;;;;6.95;1.38;;;2.90;99.90;;;;;;5036228;28;20049;-70
2023/03/05 02:29:31;;;;;;;8.10;1.55;;;2.90;99.90;;;;;;5052700;28;20110;-70
2023/03/05 02:31:57;;;;;;;4.10;1.02;;;2.90;99.90;;;;;;5052270;28;20083;-70
2023/03/05 02:34:22;;;;;;;8.23;1.30;;;2.90;99.90;;;;;;5052141;28;20091;-70
2023/03/05 02:36:49;;;;;;;4.50;1.20;;;2.90;99.90;;;;;;5052446;28;20080;-70
2023/03/05 02:39:16;;;;;;;6.80;1.40;;;2.90;99.90;;;;;;5051776;28;20049;-70
2023/03/05 02:41:42;;;;;;;7.07;1.10;;;2.80;99.90;;;;;;5052710;28;20033;-70
2023/03/05 02:44:08;;;;;;;5.55;1.35;;;2.80;99.90;;;;;;5050586;28;20037;-70
2023/03/05 02:46:34;;;;;;;7.47;1.33;;;2.90;99.90;;;;;;5052186;28;20033;-70
2023/03/05 02:49:00;;;;;;;7.00;1.58;;;2.90;99.90;;;;;;5052324;28;20175;-70
2023/03/05 02:51:25;;;;;;;6.88;1.55;;;2.80;99.90;;;;;;5052389;28;20045;-69
2023/03/05 02:53:51;;;;;;;7.15;1.10;;;2.80;99.90;;;;;;5050825;28;20096;-70
2023/03/05 02:56:16;;;;;;;6.05;1.08;;;2.90;99.90;;;;;;5050291;28;20044;-70
2023/03/05 02:58:42;;;;;;;5.30;1.10;;;2.90;99.90;;;;;;5048172;28;20076;-70
2023/03/05 03:01:09;;;;;;;3.45;1.10;;;2.90;99.90;;;;;;5035136;28;20446;-70
2023/03/05 03:03:37;;;;;;;4.25;1.10;;;2.90;99.90;;;;;;5052129;28;20104;-69
2023/03/05 03:06:03;;;;;;;6.80;1.75;;;2.90;99.90;;;;;;5032254;28;20040;-70
2023/03/05 03:08:28;;;;;;;5.07;0.95;;;3.00;99.90;;;;;;5035313;28;20041;-70
2023/03/05 03:10:55;;;;;;;6.65;1.08;;;3.00;99.90;;;;;;5051959;28;20095;-71
2023/03/05 03:13:24;;;;;;;3.90;1.02;;;3.00;99.90;;;;;;5051693;28;20083;-70
2023/03/05 03:15:50;;;;;;;5.45;1.40;;;3.10;99.90;;;;;;5051174;28;20099;-70
2023/03/05 03:18:15;;;;;;;6.00;1.38;;;3.10;99.90;;;;;;5051693;28;20033;-70
2023/03/05 03:20:41;;;;;;;5.00;1.17;;;3.20;99.90;;;;;;5033619;28;20057;-70
2023/03/05 03:23:07;;;;;;;6.03;0.93;;;3.20;99.90;;;;;;5051427;28;20377;-70
2023/03/05 03:25:33;;;;;;;5.05;1.10;;;3.20;99.90;;;;;;5051498;28;20067;-71
2023/03/05 03:27:58;;;;;;;5.38;1.30;;;3.30;99.90;;;;;;5051396;28;20076;-69
2023/03/05 03:30:24;;;;;;;4.60;0.80;;;3.30;99.90;;;;;;5051728;28;20041;-70
2023/03/05 03:32:51;;;;;;;8.13;2.15;;;3.30;99.90;;;;;;5051287;28;20048;-70
2023/03/05 03:35:17;;;;;;;4.45;0.80;;;3.30;99.90;;;;;;5051443;28;20044;-71
2023/03/05 03:37:42;;;;;;;4.82;0.93;;;3.30;99.90;;;;;;5049026;28;20033;-71
2023/03/05 03:40:10;;;;;;;2.42;0.90;;;3.20;99.90;;;;;;5050879;28;20162;-70
2023/03/05 03:42:35;;;;;;;5.25;1.02;;;3.20;99.90;;;;;;5049063;28;20032;-71
2023/03/05 03:45:01;;;;;;;2.90;1.02;;;3.20;99.90;;;;;;5051834;28;20037;-69
2023/03/05 03:47:28;;;;;;;5.75;1.08;;;3.10;99.90;;;;;;5066300;28;20041;-70
2023/03/05 03:49:55;;;;;;;6.63;1.40;;;3.10;99.90;;;;;;5051379;28;20418;-70
2023/03/05 03:52:21;;;;;;;4.28;0.90;;;3.10;99.90;;;;;;5050678;28;20053;-69
2023/03/05 03:54:48;;;;;;;4.25;1.00;;;3.10;99.90;;;;;;5050962;28;20403;-71
2023/03/05 03:57:14;;;;;;;2.80;0.77;;;3.00;99.90;;;;;;5051153;28;20098;-69
2023/03/05 03:59:40;;;;;;;3.75;0.80;;;3.00;99.90;;;;;;5049679;28;20438;-70
2023/03/05 04:02:06;;;;;;;3.30;0.80;;;2.90;99.90;;;;;;5051642;28;20424;-70
2023/03/05 04:04:31;;;;;;;5.88;0.80;;;2.80;99.90;;;;;;5050754;28;20033;-70
2023/03/05 04:06:58;;;;;;;7.05;0.90;;;2.80;99.90;;;;;;5050726;28;20112;-70
2023/03/05 04:09:24;;;;;;;2.80;0.90;;;2.80;99.90;;;;;;5049244;28;20108;-70
2023/03/05 04:11:49;;;;;;;3.50;0.70;;;2.80;99.90;;;;;;5050729;28;20049;-70
2023/03/05 04:14:15;;;;;;;5.55;0.88;;;2.80;99.90;;;;;;5050773;28;20037;-70
2023/03/05 04:16:41;;;;;;;5.70;0.90;;;2.80;99.90;;;;;;5050807;28;20722;-70
2023/03/05 04:19:06;;;;;;;4.90;1.10;;;2.80;99.90;;;;;;5050183;28;20040;-70
2023/03/05 04:21:32;;;;;;;5.97;1.00;;;2.70;99.90;;;;;;5050438;28;20073;-70
2023/03/05 04:23:58;;;;;;;5.30;0.80;;;2.70;99.90;;;;;;5050519;28;20123;-70
2023/03/05 04:26:23;;;;;;;4.32;0.90;;;2.70;99.90;;;;;;5050491;28;20033;-69
2023/03/05 04:28:49;;;;;;;4.13;1.00;;;2.70;99.90;;;;;;5050650;28;20120;-70
2023/03/05 04:31:16;;;;;;;3.78;0.80;;;2.70;99.90;;;;;;5048109;28;20040;-70
2023/03/05 04:33:41;;;;;;;6.65;0.90;;;2.80;99.90;;;;;;5049917;28;20113;-70
2023/03/05 04:36:07;;;;;;;3.80;0.80;;;2.80;99.90;;;;;;5050148;28;20120;-70
2023/03/05 04:38:33;;;;;;;4.70;1.08;;;2.70;99.90;;;;;;5050074;28;20087;-69
2023/03/05 04:40:58;;;;;;;5.00;1.05;;;2.70;99.90;;;;;;5047923;28;20060;-70
2023/03/05 04:43:24;;;;;;;7.10;1.67;;;2.70;99.90;;;;;;5033942;28;20511;-69
2023/03/05 04:45:49;;;;;;;3.38;1.13;;;2.70;99.90;;;;;;5033663;28;20049;-70
2023/03/05 04:48:15;;;;;;;4.95;0.93;;;2.70;99.90;;;;;;5033337;28;20041;-71
2023/03/05 04:50:41;;;;;;;6.18;1.10;;;2.70;99.90;;;;;;5049927;28;20427;-70
2023/03/05 04:53:07;;;;;;;4.35;1.20;;;2.70;99.90;;;;;;5046565;28;20060;-70
2023/03/05 04:55:32;;;;;;;3.00;0.90;;;2.70;99.90;;;;;;5047640;28;20049;-70
2023/03/05 04:57:58;;;;;;;3.70;1.08;;;2.70;99.90;;;;;;5049446;28;20064;-71
2023/03/05 05:00:24;;;;;;;3.30;1.13;;;2.70;99.90;;;;;;5049812;28;20049;-71
2023/03/05 05:02:51;;;;;;;4.25;1.10;;;2.70;99.90;;;;;;5049912;28;20392;-70
2023/03/05 05:05:22;;;;;;;4.20;1.05;;;2.70;99.90;;;;;;5048284;28;20064;-70
2023/03/05 05:07:48;;;;;;;3.87;1.20;;;2.70;99.90;;;;;;5049652;28;20116;-70
2023/03/05 05:10:14;;;;;;;4.18;1.17;;;2.70;99.90;;;;;;5049404;28;20171;-70
2023/03/05 05:12:41;;;;;;;4.45;1.13;;;2.70;99.90;;;;;;5049972;28;20048;-70
2023/03/05 05:15:07;;;;;;;4.80;1.08;;;2.70;99.90;;;;;;5032541;28;20032;-69
2023/03/05 05:17:33;;;;;;;7.65;1.40;;;2.70;99.90;;;;;;5049231;28;20036;-69
2023/03/05 05:19:59;;;;;;;6.03;1.50;;;2.70;99.90;;;;;;5049204;28;20123;-70
2023/03/05 05:22:27;;;;;;;3.60;1.00;;;2.60;99.90;;;;;;5033008;28;20040;-70
2023/03/05 05:24:52;;;;;;;2.92;1.25;;;2.60;99.90;;;;;;5049302;28;20056;-70
2023/03/05 05:27:18;;;;;;;3.08;1.10;;;2.70;99.90;;;;;;5048262;28;20399;-70
2023/03/05 05:29:45;;;;;;;4.95;1.88;;;2.70;99.90;;;;;;5049485;28;20032;-70
2023/03/05 05:32:11;;;;;;;7.38;1.40;;;2.70;99.90;;;;;;5049203;28;20083;-70
2023/03/05 05:34:36;;;;;;;4.20;1.25;;;2.70;99.90;;;;;;5033045;28;20166;-69
2023/03/05 05:37:02;;;;;;;2.70;1.20;;;2.60;99.90;;;;;;5048642;28;20044;-70
2023/03/05 05:39:28;;;;;;;3.75;1.20;;;2.60;99.90;;;;;;5048289;28;20037;-70
2023/03/05 05:41:53;;;;;;;4.15;1.35;;;2.60;99.90;;;;;;5032729;28;20055;-70
2023/03/05 05:44:19;;;;;;;4.03;1.23;;;2.60;99.90;;;;;;5048638;28;20033;-70
2023/03/05 05:46:44;;;;;;;4.15;1.10;;;2.50;99.90;;;;;;5049081;28;20033;-70
2023/03/05 05:49:10;;;;;;;6.32;1.73;;;2.60;99.90;;;;;;5064853;28;20036;-71
2023/03/05 05:51:36;;;;;;;2.70;1.05;;;2.60;99.90;;;;;;5049081;28;20479;-70
2023/03/05 05:54:02;;;;;;;4.65;1.05;;;2.60;99.90;;;;;;5048792;28;20496;-70
2023/03/05 05:56:27;;;;;;;4.70;1.10;;;2.60;99.90;;;;;;5048810;28;20036;-70
2023/03/05 05:58:53;;;;;;;2.45;1.08;;;2.60;99.90;;;;;;5046149;28;20493;-70
2023/03/05 06:01:27;;;;;;;6.57;1.88;;;2.60;99.90;;;;;;5048515;28;20032;-71
2023/03/05 06:03:53;;;;;;;5.00;1.15;;;2.60;99.90;;;;;;5049059;28;20037;-70
2023/03/05 06:06:21;;;;;;;3.88;1.10;;;2.60;99.90;;;;;;5048824;28;20048;-70
2023/03/05 06:08:47;;;;;;;6.07;1.38;;;2.70;99.90;;;;;;5048852;28;20041;-70
2023/03/05 06:11:14;;;;;;;5.63;1.23;;;2.70;99.90;;;;;;5048342;28;20037;-69
2023/03/05 06:13:39;;;;;;;5.32;1.88;;;2.70;99.90;;;;;;5048740;28;20033;-70
2023/03/05 06:16:11;;;;;;;6.70;1.20;;;2.70;99.90;;;;;;5048719;28;20037;-70
2023/03/05 06:18:37;;;;;;;3.63;1.03;;;2.70;99.90;;;;;;5048768;28;20087;-70
2023/03/05 06:21:05;;;;;;;4.95;1.38;;;2.70;99.90;;;;;;5047429;28;20041;-70
2023/03/05 06:23:32;;;;;;;5.03;0.90;;;2.70;99.90;;;;;;5063011;28;20100;-70
2023/03/05 06:26:03;;;;;;;7.03;1.50;;;2.70;99.90;;;;;;5048702;28;20369;-71
2023/03/05 06:28:29;;;;;;;4.13;1.25;;;2.70;99.90;;;;;;5048505;28;20072;-70
2023/03/05 06:31:06;;;;;;;4.70;1.50;;;2.70;99.90;;;;;;5048950;28;20048;-70
2023/03/05 06:33:34;;;;;;;5.93;1.60;;;2.60;99.90;;;;;;5045654;28;20044;-70
2023/03/05 06:36:03;;;;;;;6.57;1.17;;;2.60;99.90;;;;;;5079170;28;20098;-69
2023/03/05 06:38:29;;;;;;;5.22;1.42;;;2.60;99.90;;;;;;5048327;28;20095;-70
2023/03/05 06:40:54;;;;;;;5.60;1.17;;;2.70;99.90;;;;;;5048582;28;20041;-70
2023/03/05 06:43:20;;;;;;;6.20;1.23;;;2.80;99.90;;;;;;5048389;28;20044;-70
2023/03/05 06:45:46;;;;;;;4.97;1.10;;;2.90;99.90;;;;;;5045884;28;20036;-70
2023/03/05 06:48:11;;;;;;;6.15;2.03;;;2.90;99.90;;;;;;5048701;28;20072;-71
2023/03/05 06:50:37;;;;;;;5.03;1.17;;;3.00;99.90;;;;;;5048232;28;20107;-70
2023/03/05 06:53:04;;;;;;;5.25;1.20;;;3.10;99.90;;;;;;5048531;28;20099;-70
2023/03/05 06:55:29;;;;;;;6.03;1.20;;;3.10;99.90;;;;;;5049476;28;20037;-70
2023/03/05 06:57:55;;;;;;;4.95;1.17;;;3.20;99.90;;;;;;5051659;28;20045;-70
2023/03/05 07:00:21;;;;;;;2.85;1.05;;;3.20;99.90;;;;;;5051891;28;20048;-72
2023/03/05 07:02:47;;;;;;;2.72;0.90;;;3.10;99.90;;;;;;5052005;28;20033;-71
2023/03/05 07:05:13;;;;;;;2.30;0.95;;;3.10;99.90;;;;;;5052195;28;20029;-70
2023/03/05 07:07:38;;;;;;;3.45;1.17;;;3.10;99.90;;;;;;5050014;28;20054;-70
2023/03/05 07:10:06;;;;;;;4.03;0.90;;;3.10;99.90;;;;;;5051540;28;20400;-71
2023/03/05 07:12:33;;;;;;;4.43;0.88;;;3.10;99.90;;;;;;5051367;28;20056;-69
2023/03/05 07:14:59;;;;;;;6.85;1.20;;;3.20;99.90;;;;;;5051419;28;20535;-69
2023/03/05 07:17:26;;;;;;;2.65;1.02;;;3.20;99.90;;;;;;5050590;28;20052;-70
2023/03/05 07:19:52;;;;;;;4.22;1.23;;;3.20;99.90;;;;;;5049861;28;20124;-73
2023/03/05 07:22:17;;;;;;;3.50;1.00;;;3.20;99.90;;;;;;5049016;28;20120;-72
2023/03/05 07:24:43;;;;;;;4.70;1.00;;;3.30;99.90;;;;;;5051707;28;20029;-71
2023/03/05 07:27:08;;;;;;;5.13;1.30;;;3.30;99.90;;;;;;5047767;28;20034;-73
2023/03/05 07:29:35;;;;;;;4.53;1.00;;;3.30;99.90;;;;;;5050489;28;20045;-71
2023/03/05 07:32:00;;;;;;;5.60;1.10;;;3.30;99.90;;;;;;5051018;28;20457;-71
2023/03/05 07:34:26;;;;;;;5.60;1.73;;;3.40;99.90;;;;;;5051591;28;20116;-71
2023/03/05 07:36:52;;;;;;;5.88;1.30;;;3.40;99.90;;;;;;5051261;28;20045;-72
2023/03/05 07:39:18;;;;;;;6.97;1.48;;;3.40;99.90;;;;;;5050311;28;20052;-71
2023/03/05 07:41:45;;;;;;;3.53;1.00;;;3.40;99.90;;;;;;5084241;28;20488;-72
2023/03/05 07:44:11;;;;;;;3.10;0.88;;;3.40;99.90;;;;;;5051397;28;20036;-71
2023/03/05 07:46:37;;;;;;;5.95;0.90;;;3.30;99.90;;;;;;5034796;28;20044;-71
2023/03/05 07:49:03;;;;;;;2.15;0.90;;;3.40;99.90;;;;;;5050677;28;20044;-70
2023/03/05 07:51:29;;;;;;;3.53;0.90;;;3.40;99.90;;;;;;5051165;28;20041;-70
2023/03/05 07:53:57;;;;;;;4.97;1.20;;;3.40;99.90;;;;;;5050748;28;20057;-71
2023/03/05 07:56:24;;;;;;;4.05;0.90;;;3.50;99.90;;;;;;5051261;28;20130;-71
2023/03/05 07:58:51;;;;;;;5.88;1.33;;;3.40;99.90;;;;;;5050892;28;20037;-71
2023/03/05 08:01:16;;;;;;;4.43;1.20;;;3.50;99.90;;;;;;5034305;28;20063;-71
2023/03/05 08:03:43;;;;;;;3.85;1.25;;;3.50;99.90;;;;;;5051044;28;20029;-71
2023/03/05 08:06:10;;;;;;;2.95;1.00;;;3.60;99.90;;;;;;5050440;28;20040;-71
2023/03/05 08:08:37;;;;;;;7.47;1.73;;;3.60;99.90;;;;;;5050356;28;20036;-71
2023/03/05 08:11:08;;;;;;;6.10;1.20;;;3.70;99.90;;;;;;5033868;28;20045;-72
2023/03/05 08:13:34;;;;;;;5.82;1.30;;;3.80;99.90;;;;;;5050747;28;20087;-71
2023/03/05 08:16:04;;;;;;;4.10;0.90;;;3.80;99.90;;;;;;5051009;28;20427;-71
2023/03/05 08:18:30;;;;;;;4.10;0.90;;;3.90;99.90;;;;;;5051087;28;20088;-71
2023/03/05 08:20:55;;;;;;;6.63;1.17;;;4.00;99.90;;;;;;5050199;28;20106;-71
2023/03/05 08:23:21;;;;;;;10.57;2.10;;;4.00;99.90;;;;;;5050540;28;20556;-71
2023/03/05 08:25:47;;;;;;;7.18;1.13;;;4.10;99.90;;;;;;5050460;28;20036;-71
2023/03/05 08:28:12;;;;;;;7.43;0.80;;;4.20;99.90;;;;;;5050375;28;20396;-72
2023/03/05 08:30:39;;;;;;;9.80;1.30;;;4.30;99.90;;;;;;5050122;28;20399;-72
2023/03/05 08:33:05;;;;;;;4.05;0.90;;;4.40;99.90;;;;;;5050484;28;20037;-72
2023/03/05 08:35:31;;;;;;;5.97;1.45;;;4.50;99.90;;;;;;5050177;28;20044;-72
2023/03/05 08:37:56;;;;;;;3.92;0.93;;;4.60;99.90;;;;;;5050462;28;20044;-72
2023/03/05 08:40:22;;;;;;;4.97;0.90;;;4.70;99.90;;;;;;5050092;28;20047;-72
2023/03/05 08:42:48;;;;;;;4.35;1.75;;;4.80;99.90;;;;;;5050217;28;20053;-72
2023/03/05 08:45:13;;;;;;;4.00;0.80;;;4.80;99.90;;;;;;5050288;28;20033;-73
2023/03/05 08:47:39;;;;;;;4.22;0.80;;;4.90;99.90;;;;;;5050179;28;20041;-72
2023/03/05 08:50:05;;;;;;;7.10;1.10;;;5.10;99.90;;;;;;5050187;28;20484;-72
2023/03/05 08:52:31;;;;;;;4.00;0.75;;;5.10;99.90;;;;;;5049594;28;20048;-72
2023/03/05 08:54:56;;;;;;;7.88;0.90;;;5.30;99.90;;;;;;5032934;28;20061;-71
2023/03/05 08:57:22;;;;;;;5.03;1.23;;;5.30;99.90;;;;;;5050143;28;20094;-71
2023/03/05 08:59:48;;;;;;;3.90;1.13;;;5.40;99.90;;;;;;5049857;28;20051;-71
2023/03/05 09:02:13;;;;;;;5.40;0.93;;;5.60;99.90;;;;;;5049796;28;20082;-72
2023/03/05 09:04:39;;;;;;;12.57;1.70;;;5.70;99.90;;;;;;5049614;28;20114;-71
2023/03/05 09:07:05;;;;;;;7.50;1.20;;;5.70;99.90;;;;;;5049256;28;20116;-70
2023/03/05 09:09:31;;;;;;;8.43;0.98;;;5.70;99.90;;;;;;5044241;28;20053;-72
2023/03/05 09:12:00;;;;;;;5.70;1.10;;;5.70;99.90;;;;;;5049659;28;20044;-73
2023/03/05 09:14:27;;;;;;;4.07;0.90;;;5.80;99.90;;;;;;5048056;28;20049;-71
2023/03/05 09:16:54;;;;;;;3.40;0.70;;;5.80;99.90;;;;;;5049680;28;20049;-71
2023/03/05 09:19:20;;;;;;;5.30;0.70;;;5.90;99.90;;;;;;5043340;28;20080;-71
2023/03/05 09:21:46;;;;;;;7.28;1.27;;;5.80;99.90;;;;;;5024363;28;20064;-71
2023/03/05 09:24:12;;;;;;;10.98;1.25;;;5.90;99.90;;;;;;5047685;28;20434;-71
2023/03/05 09:26:37;;;;;;;5.32;1.00;;;5.90;99.90;;;;;;5048930;28;20041;-71
2023/03/05 09:29:05;;;;;;;4.50;0.70;;;5.90;99.90;;;;;;5046698;28;20522;-71
2023/03/05 09:31:31;;;;;;;6.38;0.90;;;5.90;99.90;;;;;;5047104;28;20099;-71
2023/03/05 09:33:56;;;;;;;7.50;1.10;;;6.00;99.90;;;;;;5048018;28;20045;-71
2023/03/05 09:36:26;;;;;;;8.60;1.02;;;6.00;99.90;;;;;;5049046;28;20434;-71
2023/03/05 09:38:52;;;;;;;5.57;0.88;;;5.90;99.90;;;;;;5045804;28;20047;-71
2023/03/05 09:41:48;;;;;;;6.88;1.00;;;6.00;99.90;;;;;;5079542;28;20411;-71
2023/03/05 09:44:45;;;;;;;8.30;1.00;;;6.00;99.90;;;;;;5064860;28;20037;-71
2023/03/05 09:47:42;;;;;;;6.40;1.42;;;6.00;99.90;;;;;;5047355;28;20614;-71
2023/03/05 09:50:31;;;;;;;7.28;1.30;;;6.10;99.90;;;;;;5045530;28;20045;-71
2023/03/05 09:53:34;;;;;;;10.65;1.67;;;6.40;99.90;;;;;;5048856;28;20088;-72
2023/03/05 09:56:09;;;;;;;7.25;1.27;;;6.60;99.90;;;;;;5046775;28;20050;-72
2023/03/05 09:58:41;;;;;;;4.28;0.98;;;6.70;99.90;;;;;;5050645;28;20095;-71
2023/03/05 10:01:16;;;;;;;;;;;6.80;99.90;;;;;;5047873;28;20434;-71
2023/03/05 10:03:53;;;;;;;6.50;1.02;;;6.60;99.90;;;;;;5050627;28;19931;-71
2023/03/05 10:06:23;;;;;;;7.97;1.40;;;6.60;99.90;;;;;;5050170;28;20555;-70
2023/03/05 10:09:01;;;;;;;3.63;0.70;;;6.70;99.90;;;;;;5045722;28;20075;-72
2023/03/05 10:11:36;;;;;;;9.70;1.10;;;6.70;99.90;;;;;;5051092;28;20432;-71
2023/03/05 10:14:03;;;;;;;5.45;1.20;;;6.70;99.90;;;;;;5050484;28;20090;-70
2023/03/05 10:16:49;;;;;;;6.28;1.48;;;6.80;99.90;;;;;;5047918;28;20040;-71
2023/03/05 10:19:23;;;;;;;7.82;1.17;;;6.80;99.90;;;;;;5050723;28;20131;-70
2023/03/05 10:22:22;;;;;;;4.55;0.80;;;6.60;99.90;;;;;;5047565;28;20072;-70
2023/03/05 10:25:06;;;;;;;8.10;1.00;;;6.50;99.90;;;;;;5050490;28;20056;-71
2023/03/05 10:27:36;;;;;;;6.93;0.90;;;6.30;99.90;;;;;;5031835;28;20487;-71
2023/03/05 10:30:23;;;;;;;7.80;1.02;;;6.30;99.90;;;;;;5050481;28;20044;-71
2023/03/05 10:33:07;;;;;;;7.32;0.77;;;6.30;99.90;;;;;;5042932;28;20069;-71
2023/03/05 10:35:55;;;;;;;11.60;1.77;;;6.50;99.90;;;;;;5069047;28;20040;-70
2023/03/05 10:38:52;;;;;;;4.60;0.73;;;6.80;99.90;;;;;;5049384;28;20139;-71
2023/03/05 10:41:38;;;;;;;2.70;0.68;;;7.00;99.90;;;;;;5065149;28;20055;-71
2023/03/05 10:44:15;;;;;;;4.93;0.70;;;7.20;99.90;;;;;;5048929;28;20033;-73
2023/03/05 10:46:41;;;;;;;3.88;0.85;;;7.40;99.90;;;;;;5051731;28;20033;-72
2023/03/05 10:49:30;;;;;;;4.32;0.70;;;7.60;99.90;;;;;;5051027;28;20082;-71
2023/03/05 10:52:08;;;;;;;3.30;0.57;;;7.70;99.90;;;;;;5050593;28;20044;-71
2023/03/05 10:54:36;;;;;;;6.47;1.30;;;7.70;99.90;;;;;;5033313;28;20040;-72
2023/03/05 10:57:24;;;;;;;4.53;0.95;;;7.80;99.90;;;;;;5051584;28;20130;-72
2023/03/05 10:59:51;;;;;;;6.50;1.52;;;7.80;99.90;;;;;;5051678;28;20064;-72
2023/03/05 11:02:18;;;;;;;6.25;0.80;;;7.70;99.90;;;;;;5051858;28;20040;-72
2023/03/05 11:04:46;;;;;;;3.88;0.57;;;7.70;99.90;;;;;;5034560;28;20045;-72
2023/03/05 11:07:14;;;;;;;4.03;0.70;;;7.60;99.90;;;;;;5051951;28;20037;-72
2023/03/05 11:09:41;;;;;;;4.13;0.85;;;7.60;99.90;;;;;;5051175;28;20040;-72
2023/03/05 11:12:18;;;;;;;3.15;0.70;;;7.50;99.90;;;;;;5051137;28;20431;-71
2023/03/05 11:15:06;;;;;;;2.78;0.47;;;7.50;99.90;;;;;;5034584;28;20539;-72
2023/03/05 11:18:03;;;;;;;2.55;0.52;;;7.40;99.90;;;;;;5034840;28;20251;-72
2023/03/05 11:20:31;;;;;;;3.63;0.40;;;7.50;99.90;;;;;;5051462;28;20045;-72
2023/03/05 11:23:03;;;;;;;1.55;0.30;;;7.40;99.90;;;;;;5050198;28;20041;-72
2023/03/05 11:25:29;;;;;;;1.38;0.50;;;7.50;99.90;;;;;;5051188;28;20630;-73
2023/03/05 11:27:55;;;;;;;3.17;0.60;;;7.90;99.90;;;;;;5050991;28;20048;-72
2023/03/05 11:30:39;;;;;;;2.72;0.50;;;8.30;99.90;;;;;;5051143;28;20059;-72
2023/03/05 11:33:21;;;;;;;5.10;0.70;;;8.80;99.90;;;;;;5051203;28;20055;-71
2023/03/05 11:35:49;;;;;;;5.22;1.25;;;8.90;99.90;;;;;;5051030;28;20091;-73
2023/03/05 11:38:25;;;;;;;3.15;0.63;;;8.90;99.90;;;;;;5051496;28;20060;-72
2023/03/05 11:40:54;;;;;;;4.93;0.70;;;8.80;99.90;;;;;;5051146;28;20068;-72
2023/03/05 11:43:22;;;;;;;4.85;0.80;;;8.90;99.90;;;;;;5049595;28;20822;-72
2023/03/05 11:45:52;;;;;;;4.40;0.75;;;8.60;99.90;;;;;;5034324;28;20045;-72
2023/03/05 11:48:25;;;;;;;3.22;0.60;;;8.80;99.90;;;;;;5050655;28;20060;-72
2023/03/05 11:50:56;;;;;;;2.15;0.50;;;8.90;99.90;;;;;;5034536;28;20053;-72
2023/03/05 11:53:31;;;;;;;3.63;0.63;;;9.00;99.90;;;;;;5050600;28;20105;-72
2023/03/05 11:56:06;;;;;;;2.80;0.50;;;8.90;99.90;;;;;;5050183;28;20044;-73
2023/03/05 11:58:38;;;;;;;2.60;0.50;;;8.30;99.90;;;;;;5034036;28;20431;-72
2023/03/05 12:01:18;;;;;;;6.00;0.70;;;7.60;99.90;;;;;;5049999;28;20057;-72
2023/03/05 12:03:44;;;;;;;3.10;0.40;;;7.30;99.90;;;;;;5047312;28;20507;-72
2023/03/05 12:06:34;;;;;;;5.75;0.77;;;7.00;99.90;;;;;;5033934;28;20045;-72
2023/03/05 12:09:06;;;;;;;5.15;0.70;;;6.90;99.90;;;;;;5034030;28;20037;-72
2023/03/05 12:11:33;;;;;;;2.50;0.60;;;6.90;99.90;;;;;;5050658;28;20037;-72
2023/03/05 12:14:09;;;;;;;4.57;0.70;;;6.80;99.90;;;;;;5033868;28;20079;-73
2023/03/05 12:16:44;;;;;;;3.35;0.88;;;6.80;99.90;;;;;;5066789;28;20059;-72
2023/03/05 12:19:29;;;;;;;3.60;0.60;;;6.90;99.90;;;;;;5049415;28;20116;-73
2023/03/05 12:21:55;;;;;;;5.28;1.48;;;6.90;99.90;;;;;;5067641;28;20488;-73
2023/03/05 12:24:24;;;;;;;8.23;0.85;;;7.00;99.90;;;;;;5050320;28;20129;-73
2023/03/05 12:26:58;;;;;;;4.50;0.90;;;7.10;99.90;;;;;;5064499;28;20484;-72
2023/03/05 12:29:38;;;;;;;4.43;0.65;;;7.10;99.90;;;;;;5050428;28;20404;-72
2023/03/05 12:32:20;;;;;;;4.45;0.60;;;7.20;99.90;;;;;;5033903;28;20079;-73
2023/03/05 12:34:48;;;;;;;5.68;1.02;;;7.40;99.90;;;;;;5050084;28;20123;-73
2023/03/05 12:37:34;;;;;;;4.05;0.70;;;7.60;99.90;;;;;;5032661;28;20124;-72
2023/03/05 12:40:11;;;;;;;2.88;0.95;;;7.70;99.90;;;;;;5043214;28;20369;-72
2023/03/05 12:42:37;;;;;;;4.63;0.68;;;7.60;99.90;;;;;;5049494;28;20091;-72
2023/03/05 12:45:08;;;;;;;3.53;0.88;;;7.80;99.90;;;;;;5050005;28;20431;-71
2023/03/05 12:48:00;;;;;;;3.50;0.90;;;7.80;99.90;;;;;;5049876;28;20072;-72
2023/03/05 12:50:26;;;;;;;4.50;0.80;;;8.30;99.90;;;;;;5033344;28;20462;-72
2023/03/05 12:53:10;;;;;;;1.75;0.60;;;8.40;99.90;;;;;;5032229;28;20156;-72
2023/03/05 12:55:51;;;;;;;2.90;0.60;;;8.30;99.90;;;;;;5048620;28;20041;-72
2023/03/05 12:58:42;;;;;;;2.83;0.65;;;8.40;99.90;;;;;;5049687;28;20044;-72
2023/03/05 13:01:33;;;;;;;4.85;0.77;;;8.50;99.90;;;;;;5049745;28;20103;-73
2023/03/05 13:04:13;;;;;;;1.92;0.70;;;8.70;99.90;;;;;;5048559;28;20235;-72
2023/03/05 13:06:39;;;;;;;4.18;0.73;;;8.60;99.90;;;;;;5048544;28;20037;-73
2023/03/05 13:09:27;;;;;;;3.97;0.60;;;8.30;99.90;;;;;;5049759;28;20040;-72